KDMN/DMN METAR and TAF weather

Enter ICAO airport designator
Station Type Date Time Source
KDMN METAR 2020/02/26 10:53 UTC NOAA

KDMN 261053Z AUTO 06011KT 10SM CLR M03/M09 A3044 RMK AO2 SLP297 T10331094


Station Type Date Time Source
KDMN Decoded METAR 2020/02/26 10:53 UTC NOAA

DEMING MUNICIPAL AIRPORT, NM, United States (KDMN) 32-16N 107-43W 1311M
Feb 26, 2020 - 05:53 AM EST / 2020.02.26 1053 UTC
Wind: from the ENE (060 degrees) at 13 MPH (11 KT):0
Visibility: 10 mile(s):0
Sky conditions: clear
Temperature: 26.1 F (-3.3 C)
Windchill: 14 F (-10 C):1
Dew Point: 15.1 F (-9.4 C)
Relative Humidity: 62%
Pressure (altimeter): 30.44 in. Hg (1030 hPa)
ob: KDMN 261053Z AUTO 06011KT 10SM CLR M03/M09 A3044 RMK AO2 SLP297 T10331094
cycle: 11

Station Type Date Time Source
KDMN TAF 2020/02/26 06:22 UTC NOAA

TAF KDMN 260520Z 2606/2706 05008KT P6SM SKC
FM261600 14007KT P6SM SKC

Example: see airport list